• Join FlightAware (Why Join?)
  • Login
  • US Flag 
03:01AM EDT


 

Airport Tracker/Info


-or-


 

Live Flight TrackerFlight Track Log ✈ AAL1240 ✈ 30-Apr-2012 ✈ KDFW - KDCA

Flight Track Log - Related Links

Times and Time Zones

All times are in EDT time to prevent confusion due to time zone crossing. See the AAL1240 flight status page for this flight to view local times or setup timezone preferences in your user account.

Time Position Orientation Groundspeed Altitude Reporting Facility
EDT Latitude Longitude Course Direction KTS MPH feet Rate Location/Type
11:42AM 32.8671 -97.0268 191° South  Level FlightAware Approximate
11:42AM 32.8594 -97.0286 161° South 162 186 2,000  Level FAA TRACON SMA TRACON (SMA)
11:43AM 32.8272 -97.0156 156° South 202 232 2,800 1,740 Climbing FAA TRACON SMA TRACON (SMA)
11:44AM 32.7861 -96.9933 115° Southeast 244 281 4,300 2,460 Climbing FAA TRACON SMA TRACON (SMA)
11:44AM 32.7650 -96.9386 89° East 273 314 6,100 2,580 Climbing FAA TRACON SMA TRACON (SMA)
11:45AM 32.7656 -96.8811 82° East 285 328 7,700 2,580 Climbing FAA TRACON SMA TRACON (SMA)
11:46AM 32.7736 -96.8153 64° Northeast 291 335 9,600 2,160 Climbing FAA TRACON SMA TRACON (SMA)
11:46AM 32.7994 -96.7517 64° Northeast 311 358 10,700 1,500 Climbing FAA TRACON SMA TRACON (SMA)
11:47AM 32.8292 -96.6803 64° Northeast 352 405 11,600 1,320 Climbing FAA TRACON SMA TRACON (SMA)
11:48AM 32.8578 -96.6111 64° Northeast 379 436 12,500 1,680 Climbing FAA TRACON SMA TRACON (SMA)
11:48AM 32.8914 -96.5292 63° Northeast 400 460 13,900 2,400 Climbing FAA TRACON SMA TRACON (SMA)
11:49AM 32.9267 -96.4453 64° Northeast 409 471 15,700 2,460 Climbing FAA TRACON SMA TRACON (SMA)
11:50AM 32.9578 -96.3694 73° East 414 476 17,300 2,340 Climbing FAA TRACON SMA TRACON (SMA)
11:50AM 32.9814 -96.2778 80° East 421 484 18,900 2,340 Climbing FAA TRACON SMA TRACON (SMA)
11:51AM 32.9958 -96.1806 79° East 432 497 20,400 2,100 Climbing FAA TRACON SMA TRACON (SMA)
11:52AM 33.0097 -96.0922 82° East 441 507 21,700 1,800 Climbing FAA TRACON SMA TRACON (SMA)
11:54AM 33.0539 -95.7331 81° East 458 527 26,200 1,920 Climbing Fort Worth Center
11:55AM 33.0744 -95.5689 72° East 458 527 28,400 1,560 Climbing Fort Worth Center
11:56AM 33.1142 -95.4219 70° East 458 527 29,400 960 Climbing Fort Worth Center
11:57AM 33.1617 -95.2669 70° East 472 543 30,400 1,200 Climbing Fort Worth Center
11:58AM 33.2069 -95.1144 70° East 485 558 31,900 1,500 Climbing Fort Worth Center
11:59AM 33.2542 -94.9617 70° East 485 558 33,500 1,500 Climbing Fort Worth Center
12:00PM 33.2992 -94.8114 70° East 490 564 35,000 1,320 Climbing Fort Worth Center
12:01PM 33.3439 -94.6633 70° East 490 564 36,200 960 Climbing Fort Worth Center
12:02PM 33.3886 -94.5125 71° East 485 558 37,000 600 Climbing Fort Worth Center
12:03PM 33.4308 -94.3619 70° East 480 552 37,500 540 Climbing Fort Worth Center
12:04PM 33.4772 -94.2108 69° East 475 547 38,100 480 Climbing Fort Worth Center
12:05PM 33.5275 -94.0569 65° Northeast 475 547 38,500 420 Climbing Fort Worth Center
12:06PM 33.5861 -93.9078 67° East 480 552 39,000 240 Climbing Fort Worth Center
12:07PM 33.6286 -93.7864 66° East 480 552 39,000  Level Fort Worth Center
12:08PM 33.6886 -93.6267 65° Northeast 480 552 39,000  Level Fort Worth Center
12:10PM 33.7658 -93.4231 65° Northeast 483 556 39,000  Level Memphis Center
12:11PM 33.8236 -93.2753 65° Northeast 478 550 39,000  Level Memphis Center
12:12PM 33.8792 -93.1294 65° Northeast 478 550 39,000  Level Memphis Center
12:13PM 33.9364 -92.9836 67° East 478 550 39,000  Level Memphis Center
12:14PM 33.9875 -92.8372 64° Northeast 478 550 39,000  Level Memphis Center
12:15PM 34.0444 -92.6961 68° East 472 543 39,000  Level Memphis Center
12:16PM 34.0931 -92.5519 65° Northeast 467 537 39,000  Level Memphis Center
12:17PM 34.1475 -92.4078 66° East 467 537 39,000  Level Memphis Center
12:18PM 34.2000 -92.2633 66° East 467 537 39,000  Level Memphis Center
12:19PM 34.2522 -92.1211 66° East 467 537 39,000  Level Memphis Center
12:20PM 34.3042 -91.9789 66° East 467 537 39,000  Level Memphis Center
12:21PM 34.3581 -91.8339 67° East 462 532 39,000  Level Memphis Center
12:22PM 34.4078 -91.6939 64° Northeast 462 532 39,000  Level Memphis Center
12:23PM 34.4633 -91.5536 67° East 455 524 39,000  Level Memphis Center
12:24PM 34.5128 -91.4108 65° Northeast 455 524 39,000  Level Memphis Center
12:25PM 34.5681 -91.2650 68° East 455 524 39,000  Level Memphis Center
12:26PM 34.6106 -91.1344 65° Northeast 455 524 39,000  Level Memphis Center
12:27PM 34.6656 -90.9908 66° East 468 539 39,000  Level Memphis Center
12:28PM 34.7186 -90.8422 67° East 468 539 39,000  Level Memphis Center
12:29PM 34.7692 -90.6983 67° East 463 533 39,000  Level Memphis Center
12:30PM 34.8194 -90.5544 66° East 458 527 39,000  Level Memphis Center
12:31PM 34.8758 -90.3975 67° East 453 521 39,000  Level Memphis Center
12:32PM 34.9258 -90.2508 67° East 453 521 39,000  Level Memphis Center
12:33PM 34.9758 -90.1086 66° East 453 521 39,000  Level Memphis Center
12:34PM 35.0275 -89.9692 66° East 460 529 39,000  Level Memphis Center
12:35PM 35.0814 -89.8192 68° East 460 529 39,000  Level Memphis Center
12:36PM 35.1264 -89.6842 67° East 460 529 39,000  Level Memphis Center
12:37PM 35.1756 -89.5392 67° East 460 529 39,000  Level Memphis Center
12:38PM 35.2267 -89.3936 66° East 460 529 39,000  Level Memphis Center
12:39PM 35.2797 -89.2456 68° East 460 529 39,000  Level Memphis Center
12:40PM 35.3283 -89.0997 67° East 460 529 39,000  Level Memphis Center
12:41PM 35.3850 -88.9386 69° East 460 529 39,000  Level Memphis Center
12:42PM 35.4314 -88.7925 66° East 460 529 39,000  Level Memphis Center
12:43PM 35.4836 -88.6461 67° East 455 524 39,000  Level Memphis Center
12:44PM 35.5356 -88.4972 67° East 460 529 39,000  Level Memphis Center
12:45PM 35.5856 -88.3506 67° East 460 529 39,000  Level Memphis Center
12:46PM 35.6353 -88.2036 66° East 460 529 39,000  Level Memphis Center
12:47PM 35.6808 -88.0747 68° East 449 517 39,000  Level Memphis Center
12:48PM 35.7303 -87.9250 67° East 454 522 39,000  Level Memphis Center
12:49PM 35.7814 -87.7750 68° East 465 535 39,000  Level Memphis Center
12:50PM 35.8303 -87.6250 68° East 465 535 39,000  Level Memphis Center
12:51PM 35.8789 -87.4747 68° East 472 543 39,000  Level Memphis Center
12:52PM 35.9275 -87.3244 68° East 472 543 39,000  Level Memphis Center
12:53PM 35.9778 -87.1711 68° East 472 543 39,000  Level Memphis Center
12:54PM 36.0300 -87.0075 69° East 472 543 39,000  Level Memphis Center
12:55PM 36.0778 -86.8567 69° East 472 543 39,000  Level Memphis Center
12:56PM 36.1256 -86.7056 68° East 472 543 39,000  Level Memphis Center
12:57PM 36.1714 -86.5672 67° East 477 549 39,000  Level Memphis Center
12:58PM 36.2211 -86.4183 68° East 472 543 39,000  Level Memphis Center
12:59PM 36.2742 -86.2561 69° East 467 537 39,000  Level Memphis Center
01:00PM 36.3231 -86.1017 68° East 461 531 39,000  Level Memphis Center
01:01PM 36.4039 -85.8533 69° East 469 540 39,000  Level Indianapolis Center
01:02PM 36.4483 -85.7075 68° East 462 532 39,000  Level Indianapolis Center
01:03PM 36.4969 -85.5567 68° East 462 532 39,000  Level Indianapolis Center
01:04PM 36.5453 -85.4078 69° East 462 532 39,000  Level Indianapolis Center
01:05PM 36.5933 -85.2539 69° East 467 537 39,000  Level Indianapolis Center
01:06PM 36.6414 -85.0997 70° East 467 537 39,000  Level Indianapolis Center
01:07PM 36.6850 -84.9528 69° East 467 537 39,000  Level Indianapolis Center
01:08PM 36.7306 -84.8008 69° East 467 537 39,000  Level Indianapolis Center
01:09PM 36.7758 -84.6536 68° East 467 537 39,000  Level Indianapolis Center
01:10PM 36.8144 -84.5350 70° East 462 532 39,000  Level Indianapolis Center
01:11PM 36.8658 -84.3592 69° East 456 525 39,000  Level Indianapolis Center
01:12PM 36.9106 -84.2117 70° East 456 525 39,000  Level Indianapolis Center
01:13PM 36.9531 -84.0639 70° East 450 518 39,000  Level Indianapolis Center
01:14PM 36.9972 -83.9133 69° East 455 524 39,000  Level Indianapolis Center
01:15PM 37.0436 -83.7653 71° East 455 524 39,000  Level Indianapolis Center
01:16PM 37.0856 -83.6142 69° East 450 518 39,000  Level Indianapolis Center
01:17PM 37.1314 -83.4658 70° East 450 518 39,000  Level Indianapolis Center
01:18PM 37.1750 -83.3147 70° East 450 518 39,000  Level Indianapolis Center
01:19PM 37.2183 -83.1658 71° East 457 526 39,000  Level Indianapolis Center
01:20PM 37.2614 -83.0092 69° East 457 526 39,000  Level Indianapolis Center
01:21PM 37.3025 -82.8756 71° East 462 532 39,000  Level Indianapolis Center
01:22PM 37.3433 -82.7236 71° East 462 532 39,000  Level Indianapolis Center
01:23PM 37.3858 -82.5717 70° East 462 532 39,000  Level Indianapolis Center
01:24PM 37.4283 -82.4219 71° East 462 532 39,000  Level Indianapolis Center
01:25PM 37.4706 -82.2694 72° East 462 532 39,000  Level Indianapolis Center
01:26PM 37.5106 -82.1169 70° East 462 532 39,000  Level Indianapolis Center
01:27PM 37.5544 -81.9642 72° East 462 532 39,000  Level Indianapolis Center
01:28PM 37.5939 -81.8114 71° East 457 526 39,000  Level Indianapolis Center
01:29PM 37.6356 -81.6608 71° East 457 526 39,000  Level Indianapolis Center
01:30PM 37.6786 -81.5050 71° East 462 532 39,000  Level Indianapolis Center
01:32PM 37.7353 -81.2928 71° East 456 525 39,000  Level Washington Center
01:33PM 37.7758 -81.1408 66° East 456 525 39,000  Level Washington Center
01:34PM 37.8286 -80.9872 67° East 462 532 39,000  Level Washington Center
01:35PM 37.8814 -80.8331 64° Northeast 467 537 39,000  Level Washington Center
01:36PM 37.9331 -80.6969 66° East 467 537 39,000 -240 Level Washington Center
01:37PM 37.9853 -80.5478 65° Northeast 467 537 38,600 -720 Descending Washington Center
01:38PM 38.0417 -80.3958 65° Northeast 467 537 37,600 -960 Descending Washington Center
01:39PM 38.0978 -80.2411 66° East 472 543 36,700 -840 Descending Washington Center
01:40PM 38.1517 -80.0861 66° East 472 543 36,000 -900 Descending Washington Center
01:41PM 38.2122 -79.9153 66° East 478 550 35,000 -1,380 Descending Washington Center
01:42PM 38.2678 -79.7572 65° Northeast 478 550 33,300 -2,040 Descending Washington Center
01:43PM 38.3256 -79.5961 67° East 483 556 31,000 -2,340 Descending Washington Center
01:44PM 38.3786 -79.4350 66° East 493 567 28,800 -2,280 Descending Washington Center
01:45PM 38.4339 -79.2733 70° East 493 567 26,500 -2,160 Descending Washington Center
01:46PM 38.4756 -79.1294 71° East 487 560 24,500 -2,040 Descending Washington Center
01:47PM 38.5200 -78.9672 72° East 482 555 22,500 -1,980 Descending Washington Center
01:48PM 38.5597 -78.8097 70° East 482 555 20,600 -1,920 Descending Washington Center
01:49PM 38.6011 -78.6600 69° East 462 532 18,700 -1,800 Descending Washington Center
01:50PM 38.6444 -78.5156 67° East 450 518 17,100 -1,740 Descending Washington Center
01:51PM 38.6894 -78.3764 64° Northeast 428 493 15,200 -1,320 Descending Washington Center
01:52PM 38.7403 -78.2453 65° Northeast 416 479 14,600 -960 Descending Washington Center
01:53PM 38.7889 -78.1139 64° Northeast 406 467 13,300 -840 Descending Washington Center
01:54PM 38.8375 -77.9875 64° Northeast 395 455 13,000 -240 Descending Washington Center
01:55PM 38.8903 -77.8453 66° East 395 455 12,900 -1,260 Descending Washington Center
01:56PM 38.9342 -77.7211 90° East 395 455 10,500 -1,380 Descending Washington Center
01:57PM 38.9342 -77.5931 90° East 358 412 10,200 -1,020 Descending Washington Center
01:58PM 38.9339 -77.4836 113° Southeast 321 369 8,500 -1,440 Descending Washington Center
01:59PM 38.9022 -77.3869 91° East 289 333 7,400 -660 Descending Washington Center
02:00PM 38.9000 -77.2667 360° North 234 269 7,000 -600 Descending Potomac TRACON
02:01PM 38.9333 -77.2667 333° Northwest 172 198 6,000 -480 Descending Potomac TRACON
02:02PM 38.9833 -77.3000 38° Northeast 172 198 6,000 -420 Level Potomac TRACON
02:03PM 39.0167 -77.2667 49° Northeast 199 229 5,200 -1,200 Descending Potomac TRACON
02:04PM 39.0500 -77.2167 159° South 222 255 3,700 -1,140 Descending Potomac TRACON
02:05PM 39.0167 -77.2000 142° Southeast 156 180 3,000 -360 Descending Potomac TRACON
02:06PM 38.9833 -77.1667 142° Southeast 159 183 3,000 -420 Level Potomac TRACON
02:07PM 38.9500 -77.1333 131° Southeast 159 183 2,200 -840 Descending Potomac TRACON
02:08PM 38.9167 -77.0833 142° Southeast 151 174 1,300 -840 Descending Potomac TRACON
02:09PM 38.8833 -77.0500 142° Southeast 144 166 500 -840 Descending Potomac TRACON